Terminal Aerodrome Forecast
Issued by NWS

Home | Current Version | Previous Version | Text Only | Print | Product List | Glossary On
Versions: 1 2 3 4 5 6 7 8 9 10 11 12 13 14 15 16 17 18 19 20 21 22
000
FTUS43 KDTX 052332
TAFYIP
TAF
KYIP 052332Z 0600/0624 15007KT P6SM BKN200
     FM060700 VRB03KT 4SM HZ SCT200
     FM061200 15007KT P6SM SKC
     FM061700 20010KT P6SM SCT250
     FM062300 15010KT P6SM BKN250=

USA.gov is the U.S. government's official web portal to all federal, state and local government web resources and services.